createdAt,value
2022-08-27T00:02:17.685Z,85.36
2022-08-27T00:04:46.045Z,84.46
2022-08-27T00:07:14.011Z,83.84
2022-08-27T00:09:40.968Z,82.89
2022-08-27T00:12:08.708Z,82.44
2022-08-27T00:14:37.147Z,82.28
2022-08-27T00:17:05.656Z,81.84
2022-08-27T00:19:33.170Z,82.73
2022-08-27T00:22:00.272Z,82.04
2022-08-27T00:24:27.221Z,81.19
2022-08-27T00:26:54.174Z,80.99
2022-08-27T00:29:21.323Z,80.81
2022-08-27T00:31:52.722Z,80.76
2022-08-27T00:34:20.814Z,81.13
2022-08-27T00:36:48.637Z,81.17
2022-08-27T00:39:16.035Z,81.03
2022-08-27T00:41:43.574Z,81.10
2022-08-27T00:44:11.402Z,80.98
2022-08-27T00:46:38.935Z,81.10
2022-08-27T00:49:11.670Z,81.33
2022-08-27T00:51:39.264Z,81.77
2022-08-27T00:54:07.425Z,81.92
2022-08-27T00:56:48.667Z,81.81
2022-08-27T00:59:21.829Z,82.36
2022-08-27T01:02:15.728Z,81.98
2022-08-27T01:04:44.817Z,82.10
2022-08-27T01:07:11.725Z,82.22
2022-08-27T01:09:39.435Z,82.65
2022-08-27T01:12:06.687Z,82.22
2022-08-27T01:14:33.745Z,83.38
2022-08-27T01:17:01.597Z,84.95
2022-08-27T01:19:51.498Z,84.64
2022-08-27T01:22:21.648Z,84.25
2022-08-27T01:24:52.638Z,84.53
2022-08-27T01:29:48.785Z,84.24
2022-08-27T01:32:20.857Z,84.05
2022-08-27T01:34:48.290Z,83.50
2022-08-27T01:37:16.067Z,83.78
2022-08-27T01:39:50.760Z,83.79
2022-08-27T01:42:44.155Z,83.87
2022-08-27T01:45:13.349Z,84.35
2022-08-27T01:47:40.761Z,84.43
2022-08-27T01:50:09.820Z,83.96
2022-08-27T01:52:37.283Z,83.62
2022-08-27T01:55:05.937Z,84.66
2022-08-27T01:57:33.762Z,84.02
2022-08-27T02:00:01.549Z,84.00
2022-08-27T02:02:28.541Z,84.39
2022-08-27T02:04:55.541Z,84.35
2022-08-27T02:07:22.710Z,84.32
2022-08-27T02:09:50.843Z,84.20
2022-08-27T02:12:17.706Z,84.64
2022-08-27T02:14:44.972Z,84.90
2022-08-27T02:17:12.595Z,85.66
2022-08-27T02:19:39.443Z,86.04
2022-08-27T02:22:07.512Z,86.31
2022-08-27T02:24:34.466Z,85.48
2022-08-27T02:27:02.073Z,85.08
2022-08-27T02:29:29.183Z,85.39
2022-08-27T02:31:56.282Z,85.38
2022-08-27T02:34:23.436Z,85.49
2022-08-27T02:36:50.705Z,85.55
2022-08-27T02:39:17.821Z,85.41
2022-08-27T02:41:44.677Z,85.15
2022-08-27T02:44:12.085Z,85.38
2022-08-27T02:46:41.796Z,85.54
2022-08-27T02:49:09.649Z,85.36
2022-08-27T02:51:37.153Z,85.08
2022-08-27T02:54:04.074Z,85.42
2022-08-27T02:56:30.966Z,85.82
2022-08-27T02:58:59.602Z,85.97
2022-08-27T03:01:26.542Z,86.45
2022-08-27T03:03:53.578Z,86.79
2022-08-27T03:06:20.633Z,86.56
2022-08-27T03:08:52.865Z,86.29
2022-08-27T03:11:21.838Z,86.67
2022-08-27T03:13:49.078Z,86.94
2022-08-27T03:16:16.226Z,86.59
2022-08-27T03:18:43.267Z,86.72
2022-08-27T03:21:16.715Z,86.88
2022-08-27T03:23:43.624Z,87.19
2022-08-27T03:26:11.033Z,87.11
2022-08-27T03:28:38.840Z,86.94
2022-08-27T03:31:07.001Z,87.22
2022-08-27T03:33:38.535Z,86.81
2022-08-27T03:36:07.669Z,87.11
2022-08-27T03:38:35.062Z,87.56
2022-08-27T03:41:02.772Z,87.76
2022-08-27T03:43:30.077Z,87.75
2022-08-27T03:46:00.954Z,87.96
2022-08-27T03:48:30.636Z,87.92
2022-08-27T03:50:58.435Z,87.81
2022-08-27T03:53:26.254Z,88.19
2022-08-27T03:55:53.149Z,88.52
2022-08-27T03:58:20.411Z,88.53
2022-08-27T04:00:47.488Z,88.52
2022-08-27T04:03:14.999Z,88.60
2022-08-27T04:05:45.306Z,88.80
2022-08-27T04:08:13.584Z,88.91
2022-08-27T04:10:41.663Z,89.08
2022-08-27T04:13:09.177Z,89.29
2022-08-27T04:15:40.712Z,88.64
2022-08-27T04:18:08.256Z,88.70
2022-08-27T04:20:36.374Z,89.78
2022-08-27T04:23:04.216Z,90.04
2022-08-27T04:25:31.590Z,90.98
2022-08-27T04:27:59.195Z,91.06
2022-08-27T04:30:26.167Z,90.98
2022-08-27T04:32:53.068Z,91.79
2022-08-27T04:35:20.287Z,91.86
2022-08-27T04:37:47.281Z,91.89
2022-08-27T04:40:14.132Z,90.45
2022-08-27T04:42:41.330Z,89.98
2022-08-27T04:45:08.581Z,90.02
2022-08-27T04:47:36.094Z,89.67
2022-08-27T04:50:05.784Z,90.26
2022-08-27T04:52:33.410Z,89.93
2022-08-27T04:55:08.406Z,90.22
2022-08-27T04:57:36.302Z,90.25
2022-08-27T05:00:03.763Z,90.27
2022-08-27T05:02:31.165Z,90.17
2022-08-27T05:04:58.085Z,90.31
2022-08-27T05:07:25.085Z,90.24
2022-08-27T05:09:52.604Z,90.13
2022-08-27T05:12:19.991Z,91.63
2022-08-27T05:14:47.234Z,92.00
2022-08-27T05:17:14.525Z,91.75
2022-08-27T05:19:41.317Z,91.81
2022-08-27T05:22:08.493Z,93.09
2022-08-27T05:24:35.778Z,93.45
2022-08-27T05:27:02.562Z,93.20
2022-08-27T05:29:29.427Z,93.42
2022-08-27T05:31:56.663Z,94.58
2022-08-27T05:34:26.964Z,95.26
2022-08-27T05:36:54.660Z,96.20
2022-08-27T05:39:21.904Z,97.44
2022-08-27T05:41:48.830Z,98.07
2022-08-27T05:44:40.626Z,99.26
2022-08-27T05:47:05.198Z,100.00
2022-08-27T05:49:32.397Z,100.00
2022-08-27T05:51:59.506Z,100.00
2022-08-27T05:54:26.647Z,100.00
2022-08-27T05:56:54.012Z,99.28
2022-08-27T05:59:39.464Z,99.01
2022-08-27T06:02:07.370Z,98.99
2022-08-27T06:04:34.838Z,99.07
2022-08-27T06:07:02.364Z,99.65
2022-08-27T06:09:29.718Z,99.96
2022-08-27T06:11:57.982Z,99.43
2022-08-27T06:14:24.978Z,99.64
2022-08-27T06:16:52.384Z,99.85
2022-08-27T06:19:19.622Z,99.33
2022-08-27T06:21:46.549Z,99.44
2022-08-27T06:24:27.787Z,98.59
2022-08-27T06:26:54.726Z,98.62
2022-08-27T06:29:23.804Z,97.90
2022-08-27T06:31:52.994Z,96.88
2022-08-27T06:34:20.409Z,95.91
2022-08-27T06:36:47.337Z,95.84
2022-08-27T06:39:16.928Z,95.73
2022-08-27T06:41:44.321Z,94.94
2022-08-27T06:44:12.215Z,95.07
2022-08-27T06:46:40.113Z,93.85
2022-08-27T06:49:07.224Z,94.01
2022-08-27T06:51:35.935Z,93.84
2022-08-27T06:54:05.307Z,93.65
2022-08-27T06:56:32.543Z,92.86
2022-08-27T06:59:01.002Z,92.64
2022-08-27T07:01:30.685Z,92.25
2022-08-27T07:03:58.990Z,91.10
2022-08-27T07:06:27.116Z,89.28
2022-08-27T07:08:54.955Z,88.76
2022-08-27T07:11:22.360Z,88.85
2022-08-27T07:13:49.827Z,89.58
2022-08-27T07:16:19.526Z,88.83
2022-08-27T07:18:50.524Z,88.00
2022-08-27T07:21:20.432Z,87.50
2022-08-27T07:23:48.728Z,85.68
2022-08-27T07:26:16.280Z,85.37
2022-08-27T07:28:44.353Z,85.31
2022-08-27T07:31:13.057Z,85.20
2022-08-27T07:33:42.123Z,85.25
2022-08-27T07:36:14.586Z,84.59
2022-08-27T07:38:41.566Z,84.32
2022-08-27T07:41:09.883Z,84.05
2022-08-27T07:43:56.173Z,83.77
2022-08-27T07:46:24.178Z,82.92
2022-08-27T07:48:51.951Z,82.38
2022-08-27T07:51:20.350Z,83.32
2022-08-27T07:53:47.644Z,82.94
2022-08-27T07:56:15.230Z,82.70
2022-08-27T07:58:42.377Z,83.19
2022-08-27T08:01:09.492Z,83.24
2022-08-27T08:03:36.818Z,84.40
2022-08-27T08:06:06.517Z,84.40
2022-08-27T08:08:34.758Z,83.71
2022-08-27T08:11:03.885Z,84.44
2022-08-27T08:13:31.668Z,84.86
2022-08-27T08:15:59.784Z,84.78
2022-08-27T08:18:27.705Z,83.79
2022-08-27T08:21:05.862Z,84.14
2022-08-27T08:23:33.922Z,84.52
2022-08-27T08:26:01.441Z,85.39
2022-08-27T08:28:29.371Z,86.55
2022-08-27T08:30:57.180Z,85.56
2022-08-27T08:33:24.617Z,85.35
2022-08-27T08:35:52.154Z,84.76
2022-08-27T08:38:19.592Z,85.42
2022-08-27T08:40:49.859Z,85.83
2022-08-27T08:43:38.200Z,85.95
2022-08-27T08:46:22.503Z,84.61
2022-08-27T08:48:53.373Z,84.32
2022-08-27T08:51:26.914Z,84.21
2022-08-27T08:54:04.926Z,83.14
2022-08-27T08:56:40.449Z,81.73
2022-08-27T08:59:25.719Z,81.52
2022-08-27T09:01:53.172Z,80.85
2022-08-27T09:04:20.284Z,79.92
2022-08-27T09:06:50.491Z,79.94
2022-08-27T09:09:24.081Z,76.43
2022-08-27T09:12:09.949Z,73.57
2022-08-27T09:14:46.513Z,69.70
2022-08-27T09:17:13.865Z,63.73
2022-08-27T09:19:41.627Z,58.73
2022-08-27T09:22:28.544Z,59.27
2022-08-27T09:24:55.804Z,60.68
2022-08-27T09:27:23.672Z,62.86
2022-08-27T09:29:54.582Z,63.83
2022-08-27T09:32:25.726Z,64.78
2022-08-27T09:34:57.116Z,65.83
2022-08-27T09:37:34.295Z,67.38
2022-08-27T09:40:13.701Z,67.37
2022-08-27T09:42:53.509Z,65.63
2022-08-27T09:45:23.825Z,62.38
2022-08-27T09:47:53.345Z,61.67
2022-08-27T09:50:22.518Z,61.41
2022-08-27T09:52:57.409Z,59.79
2022-08-27T09:55:36.991Z,58.84
2022-08-27T09:58:06.202Z,57.96
2022-08-27T10:00:40.225Z,57.74
2022-08-27T10:03:08.855Z,57.03
2022-08-27T10:05:38.334Z,55.52
2022-08-27T10:08:14.026Z,55.61
2022-08-27T10:10:44.535Z,52.57
2022-08-27T10:13:15.554Z,49.45
2022-08-27T10:15:49.403Z,45.35
2022-08-27T10:18:28.806Z,44.75
2022-08-27T10:21:07.869Z,46.69
2022-08-27T10:23:38.008Z,47.95
2022-08-27T10:26:23.289Z,47.54
2022-08-27T10:28:57.382Z,47.58
2022-08-27T10:31:28.184Z,49.77
2022-08-27T10:34:01.269Z,49.54
2022-08-27T10:36:44.765Z,49.69
2022-08-27T10:39:15.033Z,49.77
2022-08-27T10:41:46.235Z,50.20
2022-08-27T10:44:26.793Z,51.17
2022-08-27T10:47:12.767Z,50.20
2022-08-27T10:49:46.958Z,48.87
2022-08-27T10:52:23.325Z,47.85
2022-08-27T10:54:50.707Z,47.38
2022-08-27T10:57:39.988Z,45.58
2022-08-27T11:00:11.494Z,43.05
2022-08-27T11:02:48.444Z,42.91
2022-08-27T11:05:17.810Z,43.58
2022-08-27T11:07:47.911Z,43.81
2022-08-27T11:10:33.201Z,43.76
2022-08-27T11:13:09.252Z,45.06
2022-08-27T11:15:42.020Z,42.77
2022-08-27T11:18:17.197Z,42.01
2022-08-27T11:20:44.278Z,44.29
2022-08-27T11:23:15.294Z,45.37
2022-08-27T11:25:58.334Z,47.38
2022-08-27T11:28:31.999Z,48.66
2022-08-27T11:31:06.820Z,48.44
2022-08-27T11:33:44.099Z,43.95
2022-08-27T11:36:16.428Z,42.30
2022-08-27T11:39:02.335Z,42.86
2022-08-27T11:41:44.986Z,44.04
2022-08-27T11:44:14.227Z,45.20
2022-08-27T11:46:46.182Z,46.93
2022-08-27T11:49:24.250Z,49.84
2022-08-27T11:52:00.027Z,50.60
2022-08-27T11:54:31.986Z,50.67
2022-08-27T11:56:59.249Z,50.93
2022-08-27T11:59:26.833Z,50.52
2022-08-27T12:01:55.902Z,48.77
2022-08-27T12:04:32.145Z,47.64
2022-08-27T12:07:05.608Z,45.81
2022-08-27T12:09:47.864Z,44.98
2022-08-27T12:12:21.026Z,43.48
2022-08-27T12:14:51.908Z,42.94
2022-08-27T12:17:18.984Z,40.28
2022-08-27T12:19:48.943Z,39.23
2022-08-27T12:22:19.101Z,40.51
2022-08-27T12:24:56.409Z,43.77
2022-08-27T12:27:26.733Z,47.81
2022-08-27T12:30:12.692Z,48.25
2022-08-27T12:32:40.971Z,49.04
2022-08-27T12:35:10.994Z,49.99
2022-08-27T12:37:45.242Z,51.32
2022-08-27T12:40:19.484Z,52.76
2022-08-27T12:42:48.146Z,53.35
2022-08-27T12:45:23.924Z,52.78
2022-08-27T12:47:51.852Z,53.71
2022-08-27T12:50:26.915Z,52.82
2022-08-27T12:53:00.350Z,53.16
2022-08-27T12:55:27.556Z,51.45
2022-08-27T12:57:57.321Z,51.89
2022-08-27T13:00:26.516Z,50.54
2022-08-27T13:03:07.458Z,49.88
2022-08-27T13:05:39.772Z,50.25
2022-08-27T13:08:25.783Z,51.05
2022-08-27T13:10:53.151Z,50.73
2022-08-27T13:13:22.571Z,50.61
2022-08-27T13:16:01.687Z,51.92
2022-08-27T13:18:30.015Z,51.54
2022-08-27T13:21:02.451Z,52.43
2022-08-27T13:23:30.519Z,52.42
2022-08-27T13:26:03.133Z,53.63
2022-08-27T13:28:31.061Z,54.36
2022-08-27T13:30:59.473Z,55.35
2022-08-27T13:33:28.357Z,55.96
2022-08-27T13:35:57.588Z,57.81
2022-08-27T13:38:26.367Z,57.02
2022-08-27T13:41:06.324Z,57.91
2022-08-27T13:43:35.537Z,57.54
2022-08-27T13:46:07.427Z,57.83
2022-08-27T13:48:35.390Z,57.75
2022-08-27T13:51:03.509Z,58.96
2022-08-27T13:53:50.512Z,59.28
2022-08-27T13:56:25.019Z,59.76
2022-08-27T13:58:52.566Z,59.74
2022-08-27T14:01:28.220Z,58.66
2022-08-27T14:03:58.026Z,58.31
2022-08-27T14:06:31.974Z,58.04
2022-08-27T14:09:15.334Z,57.89
2022-08-27T14:11:43.540Z,58.37
2022-08-27T14:14:10.563Z,58.69
2022-08-27T14:16:38.109Z,58.93
2022-08-27T14:19:08.981Z,59.20
2022-08-27T14:21:37.226Z,59.37
2022-08-27T14:24:04.777Z,60.14
2022-08-27T14:26:31.939Z,60.68
2022-08-27T14:28:59.574Z,60.64
2022-08-27T14:31:27.583Z,60.71
2022-08-27T14:33:54.897Z,61.25
2022-08-27T14:36:23.008Z,60.42
2022-08-27T14:38:51.970Z,60.09
2022-08-27T14:41:21.585Z,60.06
2022-08-27T14:43:49.784Z,60.26
2022-08-27T14:46:20.040Z,59.92
2022-08-27T14:48:51.503Z,59.96
2022-08-27T14:51:22.333Z,58.98
2022-08-27T14:53:51.502Z,58.80
2022-08-27T14:56:18.781Z,58.35
2022-08-27T14:58:46.330Z,58.60
2022-08-27T15:01:14.206Z,58.50
2022-08-27T15:03:48.170Z,58.99
2022-08-27T15:06:16.288Z,59.38
2022-08-27T15:08:44.719Z,57.77
2022-08-27T15:11:14.966Z,57.15
2022-08-27T15:13:42.318Z,57.08
2022-08-27T15:16:09.461Z,57.72
2022-08-27T15:18:36.888Z,57.78
2022-08-27T15:21:04.586Z,57.72
2022-08-27T15:23:31.990Z,56.95
2022-08-27T15:25:59.080Z,57.30
2022-08-27T15:28:26.517Z,58.17
2022-08-27T15:30:53.652Z,58.36
2022-08-27T15:33:21.566Z,58.38
2022-08-27T15:35:48.950Z,57.18
2022-08-27T15:38:15.862Z,57.50
2022-08-27T15:40:42.792Z,57.82
2022-08-27T15:43:10.557Z,58.25
2022-08-27T15:45:37.867Z,57.47
2022-08-27T15:48:04.992Z,57.48
2022-08-27T15:50:32.840Z,57.84
2022-08-27T15:53:01.891Z,58.58
2022-08-27T15:55:31.045Z,58.79
2022-08-27T15:58:00.179Z,59.22
2022-08-27T16:00:28.607Z,59.96
2022-08-27T16:02:56.293Z,60.69
2022-08-27T16:05:23.837Z,61.31
2022-08-27T16:07:50.738Z,61.64
2022-08-27T16:10:18.026Z,62.36
2022-08-27T16:12:46.273Z,62.47
2022-08-27T16:15:14.427Z,62.60
2022-08-27T16:17:42.077Z,62.78
2022-08-27T16:20:10.964Z,63.23
2022-08-27T16:22:38.379Z,63.19
2022-08-27T16:25:06.430Z,63.63
2022-08-27T16:27:34.071Z,64.32
2022-08-27T16:30:01.102Z,64.42
2022-08-27T16:32:31.994Z,64.75
2022-08-27T16:35:00.694Z,64.49
2022-08-27T16:37:27.604Z,65.71
2022-08-27T16:39:54.731Z,66.12
2022-08-27T16:42:22.355Z,65.99
2022-08-27T16:44:49.310Z,66.16
2022-08-27T16:47:16.691Z,66.21
2022-08-27T16:50:02.618Z,66.52
2022-08-27T16:52:30.644Z,67.49
2022-08-27T16:54:57.725Z,67.32
2022-08-27T16:57:24.742Z,67.14
2022-08-27T16:59:51.771Z,67.18
2022-08-27T17:02:30.363Z,67.16
2022-08-27T17:05:07.379Z,67.07
2022-08-27T17:07:46.171Z,67.24
2022-08-27T17:10:17.657Z,67.55
2022-08-27T17:12:47.409Z,67.74
2022-08-27T17:15:17.994Z,67.60
2022-08-27T17:17:47.465Z,68.09
2022-08-27T17:20:18.260Z,68.49
2022-08-27T17:22:46.041Z,68.67
2022-08-27T17:25:15.240Z,68.83
2022-08-27T17:27:43.736Z,68.80
2022-08-27T17:30:11.847Z,68.73
2022-08-27T17:32:40.305Z,68.67
2022-08-27T17:35:09.565Z,69.27
2022-08-27T17:37:37.805Z,69.28
2022-08-27T17:40:06.204Z,69.20
2022-08-27T17:42:34.562Z,69.64
2022-08-27T17:45:02.920Z,69.87
2022-08-27T17:47:31.425Z,70.03
2022-08-27T17:50:00.187Z,70.43
2022-08-27T17:52:27.889Z,71.04
2022-08-27T17:54:56.961Z,71.34
2022-08-27T17:57:24.258Z,71.37
2022-08-27T17:59:52.316Z,72.13
2022-08-27T18:02:31.397Z,72.23
2022-08-27T18:04:59.306Z,72.48
2022-08-27T18:07:26.865Z,72.18
2022-08-27T18:09:54.091Z,72.11
2022-08-27T18:12:23.905Z,72.99
2022-08-27T18:15:17.923Z,72.85
2022-08-27T18:17:46.048Z,73.26
2022-08-27T18:20:15.215Z,74.28
2022-08-27T18:22:48.907Z,75.01
2022-08-27T18:25:19.070Z,74.98
2022-08-27T18:27:49.126Z,76.12
2022-08-27T18:30:17.512Z,76.43
2022-08-27T18:32:46.276Z,77.11
2022-08-27T18:35:19.515Z,77.77
2022-08-27T18:37:48.439Z,78.86
2022-08-27T18:40:16.610Z,78.80
2022-08-27T18:42:45.085Z,79.15
2022-08-27T18:45:17.501Z,80.10
2022-08-27T18:47:47.541Z,80.25
2022-08-27T18:50:20.064Z,80.55
2022-08-27T18:52:49.666Z,81.30
2022-08-27T18:55:20.158Z,81.84
2022-08-27T18:57:48.093Z,82.01
2022-08-27T19:00:16.771Z,82.71
2022-08-27T19:02:47.847Z,82.85
2022-08-27T19:05:22.723Z,83.82
2022-08-27T19:07:51.004Z,83.80
2022-08-27T19:10:19.390Z,84.31
2022-08-27T19:12:48.965Z,84.04
2022-08-27T19:15:17.331Z,84.65
2022-08-27T19:17:49.114Z,84.81
2022-08-27T19:20:19.805Z,85.13
2022-08-27T19:22:48.000Z,85.05
2022-08-27T19:25:16.597Z,84.47
2022-08-27T19:27:47.151Z,84.21
2022-08-27T19:30:15.971Z,84.54
2022-08-27T19:32:43.313Z,84.80
2022-08-27T19:35:10.700Z,84.17
2022-08-27T19:37:39.756Z,84.77
2022-08-27T19:40:09.699Z,84.79
2022-08-27T19:42:37.606Z,84.57
2022-08-27T19:45:05.750Z,84.25
2022-08-27T19:47:33.067Z,84.38
2022-08-27T19:50:00.480Z,84.36
2022-08-27T19:52:27.483Z,84.93
2022-08-27T19:55:13.128Z,85.32
2022-08-27T19:57:42.333Z,85.42
2022-08-27T20:00:10.157Z,85.50
2022-08-27T20:02:37.546Z,85.37
2022-08-27T20:05:21.106Z,84.94
2022-08-27T20:07:50.007Z,84.04
2022-08-27T20:10:18.885Z,83.83
2022-08-27T20:12:46.556Z,84.33
2022-08-27T20:15:14.006Z,83.96
2022-08-27T20:17:43.209Z,83.32
2022-08-27T20:20:11.463Z,83.58
2022-08-27T20:22:39.888Z,83.42
2022-08-27T20:25:08.070Z,83.05
2022-08-27T20:27:35.588Z,83.26
2022-08-27T20:30:04.978Z,82.15
2022-08-27T20:32:32.643Z,81.88
2022-08-27T20:34:59.558Z,82.02
2022-08-27T20:37:26.513Z,81.69
2022-08-27T20:39:53.954Z,80.78
2022-08-27T20:42:20.964Z,81.42
2022-08-27T20:44:48.459Z,82.02
2022-08-27T20:47:16.142Z,82.10
2022-08-27T20:49:44.845Z,81.83
2022-08-27T20:52:13.260Z,81.65
2022-08-27T20:54:41.022Z,82.12
2022-08-27T20:57:09.227Z,81.62
2022-08-27T20:59:54.799Z,81.44
2022-08-27T21:02:24.260Z,81.15
2022-08-27T21:04:51.967Z,80.88
2022-08-27T21:07:20.221Z,80.74
2022-08-27T21:09:56.162Z,81.03
2022-08-27T21:12:25.957Z,81.08
2022-08-27T21:14:54.948Z,81.09
2022-08-27T21:17:25.274Z,80.80
2022-08-27T21:19:52.430Z,81.23
2022-08-27T21:22:20.311Z,81.46
2022-08-27T21:24:47.810Z,81.44
2022-08-27T21:27:15.357Z,81.33
2022-08-27T21:29:45.034Z,81.40
2022-08-27T21:32:12.928Z,81.20
2022-08-27T21:34:39.958Z,81.25
2022-08-27T21:37:07.486Z,82.10
2022-08-27T21:39:34.578Z,82.68
2022-08-27T21:42:02.093Z,82.60
2022-08-27T21:44:29.970Z,82.37
2022-08-27T21:46:57.708Z,83.33
2022-08-27T21:49:24.899Z,83.48
2022-08-27T21:51:52.729Z,83.49
2022-08-27T21:54:19.816Z,84.46
2022-08-27T21:56:50.390Z,84.62
2022-08-27T21:59:17.594Z,84.50
2022-08-27T22:01:44.523Z,84.71
2022-08-27T22:04:11.441Z,84.97
2022-08-27T22:06:38.584Z,85.30
2022-08-27T22:09:05.937Z,85.41
2022-08-27T22:11:32.725Z,85.58
2022-08-27T22:13:59.891Z,85.97
2022-08-27T22:16:27.049Z,86.33
2022-08-27T22:18:54.998Z,86.07
2022-08-27T22:21:25.490Z,86.34
2022-08-27T22:23:52.641Z,86.18
2022-08-27T22:26:20.443Z,85.61
2022-08-27T22:28:47.727Z,86.65
2022-08-27T22:31:15.199Z,87.14
2022-08-27T22:33:42.649Z,87.22
2022-08-27T22:36:10.015Z,87.13
2022-08-27T22:38:36.953Z,86.93
2022-08-27T22:41:04.071Z,86.66
2022-08-27T22:43:31.432Z,86.84
2022-08-27T22:45:58.402Z,86.87
2022-08-27T22:48:25.269Z,86.71
2022-08-27T22:50:52.417Z,86.77
2022-08-27T22:53:19.561Z,87.51
2022-08-27T22:55:50.060Z,87.45
2022-08-27T22:58:18.167Z,87.74
2022-08-27T23:00:52.168Z,87.56
2022-08-27T23:03:20.574Z,87.59
2022-08-27T23:05:47.735Z,87.73
2022-08-27T23:08:15.570Z,86.96
2022-08-27T23:10:43.611Z,87.25
2022-08-27T23:13:11.505Z,86.67
2022-08-27T23:15:39.430Z,86.95
2022-08-27T23:18:06.787Z,86.84
2022-08-27T23:20:34.534Z,87.49
2022-08-27T23:23:02.691Z,87.26
2022-08-27T23:25:48.507Z,87.39
2022-08-27T23:28:15.915Z,87.82
2022-08-27T23:30:44.314Z,87.70
2022-08-27T23:33:11.892Z,87.67
2022-08-27T23:35:38.993Z,88.04
2022-08-27T23:38:06.211Z,87.90
2022-08-27T23:40:33.391Z,87.07
2022-08-27T23:43:00.854Z,86.92
2022-08-27T23:45:28.246Z,87.02
2022-08-27T23:47:55.173Z,86.28
2022-08-27T23:50:33.667Z,85.91
2022-08-27T23:53:02.619Z,86.32
2022-08-27T23:55:30.176Z,85.94
2022-08-27T23:58:00.428Z,86.60
